Wetterdaten: Woche 19.03.12 - 25.03.12 (KW12)
Datum Zeit Temp. A. Feuchte A. Luftdruck Regen Wind Richtung Taupunkt Windchill Windben
19.03.2012 00:00 13,4 C 54 % 1014,6 hPa 0,0 l/m 9,8 km/h N 4,2 C 11,6 C 29,4 km/h
19.03.2012 01:00 12,8 C 62 % 1015,8 hPa 0,0 l/m 15,4 km/h N 5,6 C 8,5 C 37,8 km/h
19.03.2012 02:00 11,8 C 64 % 1016,5 hPa 0,0 l/m 17,8 km/h N 5,2 C 6,3 C 38,6 km/h
19.03.2012 03:00 11,1 C 67 % 1017,4 hPa 0,0 l/m 12,8 km/h N 5,1 C 7,4 C 33,8 km/h
19.03.2012 04:00 10,4 C 69 % 1019,0 hPa 0,0 l/m 8,4 km/h N 4,9 C 8,6 C 20,5 km/h
19.03.2012 05:00 10,4 C 69 % 1020,1 hPa 0,0 l/m 8,8 km/h N 5,0 C 8,8 C 20,5 km/h
19.03.2012 06:00 10,1 C 70 % 1021,2 hPa 0,0 l/m 10,6 km/h N 4,8 C 7,4 C 23,3 km/h
19.03.2012 07:00 9,8 C 71 % 1022,6 hPa 0,0 l/m 14,2 km/h N 4,8 C 5,2 C 29,4 km/h
19.03.2012 08:00 9,4 C 73 % 1023,8 hPa 0,0 l/m 10,1 km/h N 4,8 C 6,9 C 22,9 km/h
19.03.2012 09:00 9,8 C 71 % 1024,5 hPa 0,0 l/m 9,8 km/h N 4,8 C 7,5 C 22,1 km/h
19.03.2012 10:00 11,4 C 65 % 1024,6 hPa 0,0 l/m 11,0 km/h N 5,0 C 8,7 C 24,5 km/h
19.03.2012 11:00 12,1 C 61 % 1024,8 hPa 0,0 l/m 11,6 km/h N 4,7 C 9,2 C 24,1 km/h
19.03.2012 12:00 11,7 C 62 % 1025,2 hPa 0,0 l/m 11,3 km/h N 4,7 C 8,8 C 22,1 km/h
19.03.2012 13:00 11,9 C 61 % 1025,3 hPa 0,0 l/m 8,6 km/h N 4,6 C 10,5 C 19,3 km/h
19.03.2012 14:00 12,2 C 58 % 1025,5 hPa 0,0 l/m 6,7 km/h N 4,2 C 11,9 C 15,7 km/h
19.03.2012 15:00 12,0 C 60 % 1025,8 hPa 0,0 l/m 7,5 km/h N 4,5 C 11,2 C 17,7 km/h
19.03.2012 16:00 11,9 C 60 % 1026,1 hPa 0,0 l/m 5,9 km/h N 4,4 C 11,8 C 14,1 km/h
19.03.2012 17:00 11,6 C 61 % 1026,6 hPa 0,0 l/m 6,4 km/h N 4,4 C 11,3 C 14,9 km/h
19.03.2012 18:00 10,4 C 65 % 1027,6 hPa 0,0 l/m 4,5 km/h N 4,2 C 10,4 C 12,1 km/h
19.03.2012 19:00 9,0 C 70 % 1028,6 hPa 0,0 l/m 2,9 km/h N 3,8 C 9,0 C 8,0 km/h
19.03.2012 20:00 7,7 C 75 % 1029,8 hPa 0,0 l/m 1,8 km/h N 3,6 C 7,7 C 6,4 km/h
19.03.2012 21:00 6,3 C 79 % 1030,8 hPa 0,0 l/m 0,3 km/h N 2,8 C 6,3 C 3,6 km/h
19.03.2012 22:00 5,6 C 78 % 1031,4 hPa 0,0 l/m 0,3 km/h N 2,0 C 5,6 C 2,4 km/h
19.03.2012 23:00 4,0 C 81 % 1032,2 hPa 0,0 l/m 0,0 km/h N 0,9 C 4,0 C 1,2 km/h
20.03.2012 00:00 4,0 C 80 % 1032,5 hPa 0,0 l/m 0,1 km/h N 0,8 C 4,0 C 2,4 km/h
20.03.2012 01:00 6,7 C 67 % 1032,8 hPa 0,0 l/m 3,4 km/h N 0,9 C 6,7 C 9,7 km/h
20.03.2012 02:00 7,2 C 62 % 1032,9 hPa 0,0 l/m 5,8 km/h N 0,4 C 7,0 C 13,3 km/h
20.03.2012 03:00 6,9 C 61 % 1033,1 hPa 0,0 l/m 4,0 km/h N -0,1 C 6,9 C 12,5 km/h
20.03.2012 04:00 6,5 C 61 % 1033,5 hPa 0,0 l/m 2,4 km/h N -0,4 C 6,5 C 7,6 km/h
20.03.2012 05:00 5,7 C 62 % 1033,9 hPa 0,0 l/m 1,0 km/h N -1,0 C 5,7 C 5,6 km/h
20.03.2012 06:00 3,5 C 68 % 1034,5 hPa 0,0 l/m 0,1 km/h N -1,8 C 3,5 C 2,0 km/h
20.03.2012 07:00 5,8 C 63 % 1035,1 hPa 0,0 l/m 0,7 km/h N -0,9 C 5,8 C 4,4 km/h
20.03.2012 08:00 8,1 C 51 % 1035,4 hPa 0,0 l/m 3,5 km/h N -1,6 C 8,1 C 10,1 km/h
20.03.2012 09:00 9,2 C 45 % 1035,9 hPa 0,0 l/m 2,4 km/h N -2,1 C 9,2 C 8,0 km/h
20.03.2012 10:00 10,1 C 41 % 1035,8 hPa 0,0 l/m 1,2 km/h N -2,5 C 10,1 C 7,2 km/h
20.03.2012 11:00 11,3 C 39 % 1035,4 hPa 0,0 l/m 1,9 km/h N -2,3 C 11,3 C 8,4 km/h
20.03.2012 12:00 12,3 C 34 % 1034,7 hPa 0,0 l/m 2,2 km/h N -3,0 C 12,3 C 9,6 km/h
20.03.2012 13:00 13,1 C 34 % 1034,0 hPa 0,0 l/m 2,4 km/h N -2,5 C 13,1 C 10,5 km/h
20.03.2012 14:00 13,5 C 35 % 1033,4 hPa 0,0 l/m 2,5 km/h N -1,9 C 13,5 C 9,7 km/h
20.03.2012 15:00 13,8 C 35 % 1032,9 hPa 0,0 l/m 1,2 km/h N -1,6 C 13,8 C 6,0 km/h
20.03.2012 16:00 13,6 C 35 % 1032,6 hPa 0,0 l/m 0,8 km/h N -1,8 C 13,6 C 6,8 km/h
20.03.2012 17:00 12,9 C 35 % 1032,8 hPa 0,0 l/m 0,2 km/h N -2,1 C 12,9 C 1,6 km/h
20.03.2012 18:00 9,5 C 46 % 1033,3 hPa 0,0 l/m 0,0 km/h N -1,7 C 9,5 C 0,0 km/h
20.03.2012 19:00 7,6 C 53 % 1033,8 hPa 0,0 l/m 0,1 km/h N -1,2 C 7,6 C 1,2 km/h
20.03.2012 20:00 7,3 C 55 % 1034,1 hPa 0,0 l/m 0,9 km/h N -1,3 C 7,3 C 4,4 km/h
20.03.2012 21:00 6,6 C 57 % 1034,5 hPa 0,0 l/m 1,0 km/h N -1,4 C 6,6 C 4,8 km/h
20.03.2012 22:00 5,8 C 61 % 1034,7 hPa 0,0 l/m 1,2 km/h N -1,1 C 5,8 C 4,8 km/h
20.03.2012 23:00 5,3 C 64 % 1034,8 hPa 0,0 l/m 0,4 km/h N -1,1 C 5,3 C 3,2 km/h
21.03.2012 00:00 3,5 C 71 % 1035,0 hPa 0,0 l/m 0,3 km/h N -1,3 C 3,5 C 3,6 km/h
21.03.2012 01:00 2,8 C 75 % 1035,1 hPa 0,0 l/m 0,3 km/h N -1,2 C 2,8 C 2,0 km/h
21.03.2012 02:00 5,2 C 70 % 1034,8 hPa 0,0 l/m 0,4 km/h N 0,1 C 5,2 C 3,2 km/h
21.03.2012 03:00 3,0 C 77 % 1034,8 hPa 0,0 l/m 0,0 km/h N -0,7 C 3,0 C 1,6 km/h
21.03.2012 04:00 4,2 C 74 % 1034,8 hPa 0,0 l/m 0,7 km/h N -0,0 C 4,2 C 4,0 km/h
21.03.2012 05:00 1,8 C 80 % 1035,3 hPa 0,0 l/m 0,1 km/h N -1,2 C 1,8 C 2,4 km/h
21.03.2012 06:00 2,5 C 80 % 1035,5 hPa 0,0 l/m 1,0 km/h N -0,5 C 2,5 C 5,6 km/h
21.03.2012 07:00 5,8 C 74 % 1035,7 hPa 0,0 l/m 0,1 km/h N 1,5 C 5,8 C 2,0 km/h
21.03.2012 08:00 8,3 C 67 % 1035,8 hPa 0,0 l/m 0,2 km/h N 2,4 C 8,3 C 2,0 km/h
21.03.2012 09:00 11,2 C 59 % 1035,8 hPa 0,0 l/m 0,6 km/h N 3,5 C 11,2 C 4,0 km/h
21.03.2012 10:00 14,1 C 50 % 1035,4 hPa 0,0 l/m 1,3 km/h N 3,7 C 14,1 C 6,4 km/h
21.03.2012 11:00 15,4 C 40 % 1035,1 hPa 0,0 l/m 1,8 km/h N 1,7 C 15,4 C 8,0 km/h
21.03.2012 12:00 16,5 C 38 % 1034,6 hPa 0,0 l/m 2,0 km/h N 1,9 C 16,5 C 9,6 km/h
21.03.2012 13:00 17,2 C 35 % 1033,7 hPa 0,0 l/m 1,9 km/h N 1,7 C 17,2 C 8,4 km/h
21.03.2012 14:00 17,5 C 33 % 1033,1 hPa 0,0 l/m 1,7 km/h N 1,0 C 17,5 C 6,4 km/h
21.03.2012 15:00 17,5 C 32 % 1032,7 hPa 0,0 l/m 1,4 km/h N 0,4 C 17,5 C 8,9 km/h
21.03.2012 16:00 17,2 C 33 % 1032,2 hPa 0,0 l/m 1,3 km/h N 0,7 C 17,2 C 6,8 km/h
21.03.2012 17:00 16,1 C 35 % 1032,2 hPa 0,0 l/m 0,3 km/h N 0,5 C 16,1 C 2,8 km/h
21.03.2012 18:00 12,5 C 43 % 1032,5 hPa 0,0 l/m 0,0 km/h N 0,2 C 12,5 C 0,0 km/h
21.03.2012 19:00 10,1 C 50 % 1032,9 hPa 0,0 l/m 0,1 km/h N 0,1 C 10,1 C 1,6 km/h
21.03.2012 20:00 9,1 C 52 % 1033,0 hPa 0,0 l/m 0,5 km/h N -0,3 C 9,1 C 4,0 km/h
21.03.2012 21:00 9,6 C 50 % 1032,8 hPa 0,0 l/m 1,7 km/h N -0,3 C 9,6 C 5,2 km/h
21.03.2012 22:00 8,4 C 53 % 1032,9 hPa 0,0 l/m 1,9 km/h N -0,6 C 8,4 C 6,0 km/h
21.03.2012 23:00 6,1 C 62 % 1033,1 hPa 0,0 l/m 0,4 km/h N -0,6 C 6,1 C 2,8 km/h
22.03.2012 00:00 4,9 C 67 % 1033,1 hPa 0,0 l/m 0,1 km/h N -0,7 C 4,9 C 0,8 km/h
22.03.2012 01:00 5,4 C 66 % 1032,9 hPa 0,0 l/m 0,1 km/h N -0,6 C 5,4 C 2,8 km/h
22.03.2012 02:00 5,7 C 66 % 1032,7 hPa 0,0 l/m 0,8 km/h N -0,3 C 5,7 C 4,8 km/h
22.03.2012 03:00 5,7 C 66 % 1032,4 hPa 0,0 l/m 0,4 km/h N -0,3 C 5,7 C 4,4 km/h
22.03.2012 04:00 4,9 C 71 % 1032,4 hPa 0,0 l/m 0,9 km/h N 0,0 C 4,9 C 5,2 km/h
22.03.2012 05:00 3,0 C 81 % 1032,7 hPa 0,0 l/m 0,0 km/h N -0,0 C 3,0 C 1,2 km/h
22.03.2012 06:00 3,2 C 83 % 1033,1 hPa 0,0 l/m 0,0 km/h N 0,5 C 3,2 C 0,0 km/h
22.03.2012 07:00 7,0 C 79 % 1033,2 hPa 0,0 l/m 1,1 km/h N 3,6 C 7,0 C 4,0 km/h
22.03.2012 08:00 9,7 C 75 % 1033,1 hPa 0,0 l/m 3,5 km/h N 5,5 C 9,7 C 8,4 km/h
22.03.2012 09:00 11,4 C 72 % 1032,9 hPa 0,0 l/m 2,2 km/h N 6,4 C 11,4 C 7,6 km/h
22.03.2012 10:00 13,0 C 66 % 1032,5 hPa 0,0 l/m 1,5 km/h N 6,8 C 13,0 C 7,6 km/h
22.03.2012 11:00 14,9 C 60 % 1031,8 hPa 0,0 l/m 1,6 km/h N 7,1 C 14,9 C 7,2 km/h
22.03.2012 12:00 16,1 C 57 % 1031,1 hPa 0,0 l/m 2,1 km/h N 7,6 C 16,1 C 8,1 km/h
22.03.2012 13:00 17,2 C 51 % 1030,1 hPa 0,0 l/m 2,7 km/h N 7,0 C 17,2 C 12,1 km/h
22.03.2012 14:00 17,9 C 45 % 1029,2 hPa 0,0 l/m 1,8 km/h N 5,9 C 17,9 C 10,1 km/h
22.03.2012 15:00 18,3 C 44 % 1028,4 hPa 0,0 l/m 2,0 km/h N 5,7 C 18,3 C 9,6 km/h
22.03.2012 16:00 18,1 C 43 % 1027,9 hPa 0,0 l/m 1,1 km/h N 5,4 C 18,1 C 6,0 km/h
22.03.2012 17:00 17,2 C 43 % 1027,8 hPa 0,0 l/m 0,4 km/h N 4,5 C 17,2 C 4,8 km/h
22.03.2012 18:00 13,5 C 51 % 1028,0 hPa 0,0 l/m 0,0 km/h N 3,3 C 13,5 C 0,4 km/h
22.03.2012 19:00 10,6 C 61 % 1028,1 hPa 0,0 l/m 0,0 km/h N 3,3 C 10,6 C 0,0 km/h
22.03.2012 20:00 10,9 C 63 % 1028,0 hPa 0,0 l/m 0,0 km/h N 4,1 C 10,9 C 1,6 km/h
22.03.2012 21:00 9,1 C 67 % 1027,9 hPa 0,0 l/m 0,0 km/h N 3,3 C 9,1 C 0,8 km/h
22.03.2012 22:00 7,2 C 73 % 1027,9 hPa 0,0 l/m 0,0 km/h N 2,6 C 7,2 C 0,4 km/h
22.03.2012 23:00 6,4 C 78 % 1027,8 hPa 0,0 l/m 0,0 km/h N 2,8 C 6,4 C 0,0 km/h
23.03.2012 00:00 5,5 C 80 % 1027,4 hPa 0,0 l/m 0,0 km/h N 2,2 C 5,5 C 0,4 km/h
23.03.2012 01:00 4,3 C 83 % 1027,2 hPa 0,0 l/m 0,0 km/h N 1,6 C 4,3 C 0,0 km/h
23.03.2012 02:00 3,8 C 83 % 1026,5 hPa 0,0 l/m 0,0 km/h N 1,1 C 3,8 C 0,0 km/h
23.03.2012 03:00 3,3 C 82 % 1026,1 hPa 0,0 l/m 0,0 km/h N 0,5 C 3,3 C 0,0 km/h
23.03.2012 04:00 2,8 C 81 % 1026,1 hPa 0,0 l/m 0,0 km/h N -0,1 C 2,8 C 0,0 km/h
23.03.2012 05:00 2,7 C 80 % 1026,1 hPa 0,0 l/m 0,0 km/h N -0,4 C 2,7 C 0,0 km/h
23.03.2012 06:00 2,8 C 79 % 1026,3 hPa 0,0 l/m 0,0 km/h N -0,5 C 2,8 C 0,0 km/h
23.03.2012 07:00 5,8 C 80 % 1026,3 hPa 0,0 l/m 0,0 km/h N 2,5 C 5,8 C 0,4 km/h
23.03.2012 08:00 9,5 C 76 % 1026,2 hPa 0,0 l/m 0,6 km/h N 5,5 C 9,5 C 4,4 km/h
23.03.2012 09:00 11,5 C 67 % 1026,2 hPa 0,0 l/m 0,6 km/h N 5,7 C 11,5 C 6,4 km/h
23.03.2012 10:00 13,0 C 60 % 1025,9 hPa 0,0 l/m 1,7 km/h N 5,3 C 13,0 C 8,0 km/h
23.03.2012 11:00 14,8 C 56 % 1025,5 hPa 0,0 l/m 1,4 km/h N 6,1 C 14,8 C 8,0 km/h
23.03.2012 12:00 16,5 C 52 % 1025,1 hPa 0,0 l/m 2,8 km/h N 6,5 C 16,5 C 9,3 km/h
23.03.2012 13:00 18,1 C 47 % 1024,3 hPa 0,0 l/m 2,5 km/h N 6,6 C 18,1 C 8,9 km/h
23.03.2012 14:00 19,0 C 42 % 1023,7 hPa 0,0 l/m 1,4 km/h N 5,7 C 19,0 C 7,2 km/h
23.03.2012 15:00 19,3 C 40 % 1023,1 hPa 0,0 l/m 2,0 km/h N 5,3 C 19,3 C 8,1 km/h
23.03.2012 16:00 19,0 C 41 % 1022,9 hPa 0,0 l/m 0,9 km/h N 5,5 C 19,0 C 4,4 km/h
23.03.2012 17:00 17,5 C 44 % 1022,8 hPa 0,0 l/m 0,2 km/h N 5,1 C 17,5 C 2,4 km/h
23.03.2012 18:00 14,3 C 57 % 1023,1 hPa 0,0 l/m 0,1 km/h N 5,7 C 14,3 C 2,0 km/h
23.03.2012 19:00 11,5 C 67 % 1023,3 hPa 0,0 l/m 0,0 km/h N 5,6 C 11,5 C 0,4 km/h
23.03.2012 20:00 10,3 C 72 % 1023,6 hPa 0,0 l/m 0,0 km/h N 5,4 C 10,3 C 1,2 km/h
23.03.2012 21:00 10,2 C 73 % 1023,8 hPa 0,0 l/m 0,1 km/h N 5,4 C 10,2 C 2,0 km/h
23.03.2012 22:00 9,5 C 75 % 1023,9 hPa 0,0 l/m 0,5 km/h N 5,2 C 9,5 C 3,6 km/h
23.03.2012 23:00 9,0 C 76 % 1023,9 hPa 0,0 l/m 0,0 km/h N 5,0 C 9,0 C 1,2 km/h
24.03.2012 00:00 7,9 C 78 % 1023,8 hPa 0,0 l/m 0,3 km/h N 4,3 C 7,9 C 4,4 km/h
24.03.2012 01:00 6,1 C 82 % 1023,7 hPa 0,0 l/m 0,2 km/h N 3,2 C 6,1 C 2,0 km/h
24.03.2012 02:00 5,5 C 82 % 1023,5 hPa 0,0 l/m 0,1 km/h N 2,7 C 5,5 C 2,4 km/h
24.03.2012 03:00 5,8 C 83 % 1023,6 hPa 0,0 l/m 0,0 km/h N 3,0 C 5,8 C 1,6 km/h
24.03.2012 04:00 4,8 C 82 % 1023,7 hPa 0,0 l/m 0,0 km/h N 2,1 C 4,8 C 0,8 km/h
24.03.2012 05:00 5,3 C 82 % 1024,0 hPa 0,0 l/m 1,0 km/h N 2,5 C 5,3 C 4,4 km/h
24.03.2012 06:00 4,9 C 81 % 1024,5 hPa 0,0 l/m 0,0 km/h N 1,9 C 4,9 C 0,0 km/h
24.03.2012 07:00 7,8 C 80 % 1024,7 hPa 0,0 l/m 0,0 km/h N 4,6 C 7,8 C 0,0 km/h
24.03.2012 08:00 11,8 C 70 % 1024,7 hPa 0,0 l/m 3,2 km/h N 6,4 C 11,5 C 8,5 km/h
24.03.2012 09:00 13,8 C 63 % 1024,7 hPa 0,0 l/m 5,8 km/h N 6,9 C 13,6 C 14,1 km/h
24.03.2012 10:00 15,6 C 57 % 1024,3 hPa 0,0 l/m 4,3 km/h N 7,2 C 15,6 C 10,1 km/h
24.03.2012 11:00 17,2 C 53 % 1024,1 hPa 0,0 l/m 3,5 km/h N 7,4 C 17,2 C 8,9 km/h
24.03.2012 12:00 18,4 C 48 % 1023,7 hPa 0,0 l/m 2,3 km/h N 7,2 C 18,4 C 9,3 km/h
24.03.2012 13:00 19,3 C 44 % 1023,2 hPa 0,0 l/m 2,6 km/h N 6,6 C 19,3 C 9,3 km/h
24.03.2012 14:00 19,4 C 41 % 1022,7 hPa 0,0 l/m 2,0 km/h N 5,9 C 19,4 C 9,6 km/h
24.03.2012 15:00 19,4 C 41 % 1022,2 hPa 0,0 l/m 0,9 km/h N 5,7 C 19,4 C 6,4 km/h
24.03.2012 16:00 19,2 C 40 % 1022,0 hPa 0,0 l/m 0,3 km/h N 5,1 C 19,2 C 4,4 km/h
24.03.2012 17:00 18,5 C 42 % 1022,1 hPa 0,0 l/m 1,3 km/h N 5,4 C 18,5 C 7,6 km/h
24.03.2012 18:00 14,8 C 58 % 1023,2 hPa 5,2 l/m 5,6 km/h N 6,5 C 14,8 C 22,9 km/h
24.03.2012 19:00 13,4 C 67 % 1023,4 hPa 0,3 l/m 5,9 km/h N 7,3 C 13,2 C 17,3 km/h
24.03.2012 20:00 12,0 C 72 % 1023,4 hPa 0,0 l/m 1,3 km/h N 7,2 C 12,0 C 7,2 km/h
24.03.2012 21:00 11,9 C 70 % 1023,5 hPa 0,0 l/m 2,9 km/h N 6,5 C 11,9 C 7,6 km/h
24.03.2012 22:00 11,8 C 66 % 1023,8 hPa 0,0 l/m 2,0 km/h N 5,7 C 11,8 C 6,8 km/h
24.03.2012 23:00 12,4 C 62 % 1023,9 hPa 0,0 l/m 2,8 km/h N 5,4 C 12,4 C 10,9 km/h
25.03.2012 00:00 12,7 C 60 % 1023,8 hPa 0,0 l/m 5,0 km/h N 5,2 C 12,7 C 13,7 km/h
25.03.2012 01:00 11,3 C 65 % 1024,0 hPa 0,0 l/m 1,3 km/h N 4,9 C 11,3 C 5,2 km/h
25.03.2012 03:00 11,4 C 66 % 1024,0 hPa 0,0 l/m 2,7 km/h N 5,1 C 11,4 C 9,3 km/h
25.03.2012 04:00 9,3 C 73 % 1024,1 hPa 0,0 l/m 0,1 km/h N 4,6 C 9,3 C 2,4 km/h
25.03.2012 05:00 8,5 C 75 % 1024,3 hPa 0,0 l/m 0,5 km/h N 4,4 C 8,5 C 4,8 km/h
25.03.2012 06:00 11,3 C 67 % 1024,4 hPa 0,0 l/m 7,6 km/h N 5,5 C 10,5 C 19,3 km/h
25.03.2012 07:00 11,3 C 68 % 1024,8 hPa 0,0 l/m 7,3 km/h N 5,5 C 10,7 C 18,1 km/h
25.03.2012 08:00 12,5 C 64 % 1025,3 hPa 0,0 l/m 12,7 km/h N 5,9 C 9,2 C 25,4 km/h
25.03.2012 09:00 13,8 C 60 % 1025,5 hPa 0,0 l/m 13,7 km/h N 6,2 C 10,2 C 25,7 km/h
25.03.2012 10:00 14,9 C 58 % 1025,8 hPa 0,0 l/m 13,5 km/h N 6,6 C 11,6 C 26,2 km/h
25.03.2012 11:00 16,3 C 55 % 1025,7 hPa 0,0 l/m 11,8 km/h N 7,1 C 13,9 C 26,1 km/h
25.03.2012 12:00 17,3 C 51 % 1025,3 hPa 0,0 l/m 13,5 km/h N 7,0 C 14,4 C 27,8 km/h
25.03.2012 13:00 18,5 C 50 % 1024,7 hPa 0,0 l/m 12,4 km/h N 7,7 C 16,2 C 28,2 km/h
25.03.2012 14:00 19,0 C 46 % 1024,0 hPa 0,0 l/m 14,8 km/h N 6,9 C 16,0 C 30,2 km/h
25.03.2012 15:00 19,3 C 43 % 1023,5 hPa 0,0 l/m 13,8 km/h N 6,4 C 16,7 C 28,2 km/h
25.03.2012 16:00 19,4 C 38 % 1023,4 hPa 0,0 l/m 15,7 km/h N 4,6 C 16,4 C 30,6 km/h
25.03.2012 17:00 19,2 C 37 % 1023,2 hPa 0,0 l/m 14,6 km/h N 4,2 C 16,4 C 32,2 km/h
25.03.2012 18:00 18,7 C 37 % 1023,2 hPa 0,0 l/m 10,6 km/h N 3,5 C 17,1 C 26,9 km/h
25.03.2012 19:00 17,6 C 31 % 1023,8 hPa 0,0 l/m 8,1 km/h N 0,4 C 16,6 C 19,3 km/h
25.03.2012 20:00 16,1 C 33 % 1024,5 hPa 0,0 l/m 5,3 km/h N -0,3 C 16,1 C 15,7 km/h
25.03.2012 21:00 14,9 C 35 % 1025,3 hPa 0,0 l/m 5,9 km/h N -0,5 C 14,4 C 15,3 km/h
25.03.2012 22:00 14,4 C 39 % 1025,6 hPa 0,0 l/m 10,3 km/h N 0,8 C 12,4 C 23,7 km/h
25.03.2012 23:00 13,5 C 43 % 1026,1 hPa 0,0 l/m 9,9 km/h N 1,1 C 11,5 C 24,1 km/h
Min-Datum _ 21.03.12 21.03.12 19.03.12 - 19.03.12 - 20.03.12 21.03.12 19.03.12
_ Min-Zeit 05:45 15:15 00:00 - 21:45 - 12:00 05:30 22:45
Minimum _ 0,9 C 30 % 1014,3 hPa - 0,0 km/h - -3,5 C 1,1 C 0,0 km/h
Max-Datum _ 24.03.12 20.03.12 20.03.12 24.03.12 19.03.12 - 24.03.12 24.03.12 19.03.12
_ Max-Zeit 14:15 00:00 09:30 18:15 01:45 - 11:15 13:30 01:30
Maximum _ 19,8 C 83 % 1036,0 hPa 5,2 l/m 22,1 km/h
N
- 8,3 C 19,7 C 49,9 km/h
N
Durchschnitt _ 11,0 C 60 % 1028,0 hPa #5,5 l/m 3,3 km/h N 3,0 C 10,5 C 9,4 km/h